Walnut, California
Current Conditions -  °F | °C
As of 11:53 PM on Tuesday 25 Nov 2014 (Local Time) from KCNO Reporting Station
Clear Clear  
Wind Chill: 50°   Ceiling: Unl
Heat Index: 50°   Visibility: 8mi
Dew Point: 30°   Wind: 0mph
Humidity: 46%   Direction: NA
Pressure: 30.3"   Gusts: NA
Location:  34.03°N, 117.84°W
Report Text: KCNO 260753Z 00000KT 8SM CLR 10/M01 A3030 RMK AO2 SLP256 T01001011 402670039 $
Loading
Personal Weather Stations






























Interactive Weather Map New forecast layout! Learn more

10-Day Weather Forecast

Advertisements
Track Severe Weather on mobile